createdAt,value
2019-06-08T00:01:09.643Z,52.87
2019-06-08T00:03:38.478Z,50.37
2019-06-08T00:06:07.370Z,46.74
2019-06-08T00:08:36.269Z,50.11
2019-06-08T00:11:05.755Z,51.21
2019-06-08T00:13:34.619Z,53.47
2019-06-08T00:16:03.542Z,49.39
2019-06-08T00:18:32.469Z,49.21
2019-06-08T00:21:01.458Z,50.16
2019-06-08T00:23:30.323Z,52.90
2019-06-08T00:25:59.235Z,49.04
2019-06-08T00:28:28.241Z,49.84
2019-06-08T00:30:57.231Z,50.17
2019-06-08T00:33:26.110Z,48.52
2019-06-08T00:35:55.120Z,49.86
2019-06-08T00:38:25.151Z,48.56
2019-06-08T00:40:54.160Z,52.24
2019-06-08T00:43:23.753Z,48.73
2019-06-08T00:45:52.821Z,48.78
2019-06-08T00:48:22.694Z,49.50
2019-06-08T00:50:51.859Z,52.61
2019-06-08T00:53:21.290Z,52.22
2019-06-08T00:55:50.218Z,52.76
2019-06-08T00:58:20.425Z,50.50
2019-06-08T01:00:49.386Z,48.32
2019-06-08T01:03:19.599Z,47.47
2019-06-08T01:05:48.566Z,50.33
2019-06-08T01:08:20.157Z,49.99
2019-06-08T01:10:48.382Z,49.89
2019-06-08T01:13:18.748Z,49.42
2019-06-08T01:15:47.911Z,49.28
2019-06-08T01:18:16.855Z,50.54
2019-06-08T01:20:46.087Z,51.92
2019-06-08T01:23:15.085Z,48.83
2019-06-08T01:25:43.990Z,51.01
2019-06-08T01:28:12.956Z,49.73
2019-06-08T01:30:41.839Z,48.96
2019-06-08T01:33:10.783Z,53.32
2019-06-08T01:35:39.754Z,52.00
2019-06-08T01:38:08.801Z,50.74
2019-06-08T01:40:37.672Z,49.34
2019-06-08T01:43:06.653Z,50.80
2019-06-08T01:45:35.602Z,52.93
2019-06-08T01:48:19.638Z,52.80
2019-06-08T01:50:36.481Z,51.46
2019-06-08T01:53:05.477Z,51.02
2019-06-08T01:55:34.481Z,50.99
2019-06-08T01:58:03.386Z,53.35
2019-06-08T02:00:39.377Z,50.85
2019-06-08T02:03:03.239Z,50.27
2019-06-08T02:05:32.511Z,52.79
2019-06-08T02:08:01.514Z,50.68
2019-06-08T02:10:30.858Z,52.22
2019-06-08T02:12:59.775Z,51.51
2019-06-08T02:15:29.162Z,51.15
2019-06-08T02:17:58.099Z,51.60
2019-06-08T02:20:27.049Z,49.17
2019-06-08T02:22:56.011Z,49.12
2019-06-08T02:25:29.256Z,49.69
2019-06-08T02:27:58.380Z,49.71
2019-06-08T02:30:33.460Z,50.35
2019-06-08T02:33:01.500Z,48.01
2019-06-08T02:35:30.816Z,50.42
2019-06-08T02:38:00.048Z,49.90
2019-06-08T02:40:30.311Z,49.03
2019-06-08T02:42:59.706Z,48.55
2019-06-08T02:45:29.661Z,49.42
2019-06-08T02:47:59.283Z,50.18
2019-06-08T02:50:51.771Z,48.54
2019-06-08T02:53:20.953Z,48.71
2019-06-08T02:55:50.658Z,51.08
2019-06-08T02:58:19.845Z,48.80
2019-06-08T03:00:55.203Z,51.65
2019-06-08T03:03:24.138Z,53.47
2019-06-08T03:05:53.095Z,52.67
2019-06-08T03:08:22.174Z,48.46
2019-06-08T03:10:53.189Z,51.90
2019-06-08T03:13:23.369Z,52.66
2019-06-08T03:15:52.618Z,51.53
2019-06-08T03:18:21.623Z,48.72
2019-06-08T03:20:50.655Z,49.76
2019-06-08T03:23:19.660Z,49.70
2019-06-08T03:25:53.147Z,48.54
2019-06-08T03:28:19.435Z,50.04
2019-06-08T03:30:54.385Z,53.58
2019-06-08T03:33:19.071Z,51.04
2019-06-08T03:35:57.023Z,51.62
2019-06-08T03:38:19.349Z,50.50
2019-06-08T03:40:48.260Z,50.65
2019-06-08T03:43:17.245Z,53.52
2019-06-08T03:45:46.192Z,48.97
2019-06-08T03:48:15.232Z,50.85
2019-06-08T03:50:46.208Z,49.44
2019-06-08T03:53:14.859Z,53.47
2019-06-08T03:55:46.605Z,51.98
2019-06-08T03:58:15.617Z,53.82
2019-06-08T04:00:46.914Z,49.01
2019-06-08T04:03:16.588Z,51.40
2019-06-08T04:05:46.542Z,49.70
2019-06-08T04:08:15.666Z,52.53
2019-06-08T04:10:46.752Z,49.71
2019-06-08T04:13:15.207Z,49.30
2019-06-08T04:15:45.146Z,50.95
2019-06-08T04:18:14.852Z,52.07
2019-06-08T04:20:46.362Z,50.33
2019-06-08T04:23:15.488Z,50.12
2019-06-08T04:25:45.542Z,49.08
2019-06-08T04:28:15.154Z,52.47
2019-06-08T04:30:45.381Z,52.72
2019-06-08T04:33:14.849Z,52.51
2019-06-08T04:35:45.223Z,49.74
2019-06-08T04:38:14.463Z,50.76
2019-06-08T04:40:45.686Z,50.71
2019-06-08T04:43:14.272Z,49.77
2019-06-08T04:45:45.186Z,48.42
2019-06-08T04:48:13.914Z,48.13
2019-06-08T04:50:43.527Z,48.24
2019-06-08T04:53:13.545Z,49.49
2019-06-08T04:55:43.316Z,46.39
2019-06-08T04:58:13.364Z,48.43
2019-06-08T05:00:45.593Z,47.39
2019-06-08T05:03:14.040Z,47.81
2019-06-08T05:05:43.332Z,49.34
2019-06-08T05:08:12.377Z,48.28
2019-06-08T05:10:43.128Z,45.71
2019-06-08T05:13:12.251Z,47.60
2019-06-08T05:15:41.534Z,46.12
2019-06-08T05:18:12.144Z,44.04
2019-06-08T05:20:43.442Z,42.00
2019-06-08T05:23:11.818Z,39.18
2019-06-08T05:25:41.217Z,38.78
2019-06-08T05:28:10.316Z,37.25
2019-06-08T05:30:39.489Z,37.04
2019-06-08T05:33:08.435Z,35.95
2019-06-08T05:35:37.582Z,34.63
2019-06-08T05:38:06.509Z,36.59
2019-06-08T05:40:35.637Z,34.00
2019-06-08T05:43:04.835Z,32.42
2019-06-08T05:45:33.840Z,32.97
2019-06-08T05:48:02.977Z,31.90
2019-06-08T05:50:32.290Z,34.01
2019-06-08T05:53:01.611Z,31.78
2019-06-08T05:55:30.563Z,31.78
2019-06-08T05:57:59.615Z,33.64
2019-06-08T06:00:28.579Z,33.77
2019-06-08T06:02:57.545Z,33.16
2019-06-08T06:05:27.695Z,31.51
2019-06-08T06:07:56.586Z,31.48
2019-06-08T06:10:25.612Z,32.12
2019-06-08T06:12:54.713Z,32.80
2019-06-08T06:15:23.745Z,31.88
2019-06-08T06:17:52.665Z,32.02
2019-06-08T06:20:21.631Z,31.50
2019-06-08T06:22:52.508Z,32.36
2019-06-08T06:25:21.429Z,33.27
2019-06-08T06:27:51.748Z,32.46
2019-06-08T06:30:20.790Z,30.81
2019-06-08T06:32:50.220Z,29.19
2019-06-08T06:35:19.348Z,29.41
2019-06-08T06:37:48.379Z,29.22
2019-06-08T06:40:17.355Z,30.39
2019-06-08T06:42:46.311Z,30.44
2019-06-08T06:45:16.187Z,29.54
2019-06-08T06:47:46.369Z,29.94
2019-06-08T06:50:15.653Z,30.79
2019-06-08T06:52:44.806Z,31.33
2019-06-08T06:55:13.887Z,32.64
2019-06-08T06:57:43.491Z,32.43
2019-06-08T07:00:12.700Z,34.18
2019-06-08T07:02:41.766Z,33.33
2019-06-08T07:05:10.862Z,34.02
2019-06-08T07:07:40.918Z,33.10
2019-06-08T07:10:10.101Z,32.63
2019-06-08T07:12:39.051Z,34.71
2019-06-08T07:15:08.806Z,33.05
2019-06-08T07:17:37.781Z,33.96
2019-06-08T07:20:08.152Z,35.01
2019-06-08T07:22:37.051Z,31.95
2019-06-08T07:25:06.908Z,32.50
2019-06-08T07:27:35.943Z,33.97
2019-06-08T07:30:05.454Z,32.30
2019-06-08T07:32:34.514Z,34.27
2019-06-08T07:35:03.701Z,33.71
2019-06-08T07:37:32.918Z,31.38
2019-06-08T07:40:01.975Z,30.22
2019-06-08T07:42:31.018Z,30.12
2019-06-08T07:45:00.466Z,30.49
2019-06-08T07:47:29.460Z,32.31
2019-06-08T07:49:59.534Z,30.58
2019-06-08T07:52:28.697Z,30.79
2019-06-08T07:54:58.572Z,31.25
2019-06-08T07:57:27.692Z,31.12
2019-06-08T07:59:56.690Z,31.75
2019-06-08T08:02:25.811Z,31.80
2019-06-08T08:04:54.890Z,30.71
2019-06-08T08:07:23.972Z,29.81
2019-06-08T08:09:53.248Z,30.13
2019-06-08T08:12:23.523Z,32.35
2019-06-08T08:14:53.325Z,32.62
2019-06-08T08:17:22.423Z,31.27
2019-06-08T08:19:51.316Z,30.07
2019-06-08T08:22:26.028Z,29.78
2019-06-08T08:24:54.464Z,29.09
2019-06-08T08:27:22.167Z,28.44
2019-06-08T08:29:51.444Z,27.42
2019-06-08T08:32:20.486Z,28.08
2019-06-08T08:34:50.907Z,28.82
2019-06-08T08:37:20.286Z,28.14
2019-06-08T08:39:50.720Z,29.91
2019-06-08T08:42:20.034Z,30.72
2019-06-08T08:44:50.954Z,30.24
2019-06-08T08:47:19.716Z,30.44
2019-06-08T08:49:50.636Z,29.60
2019-06-08T08:52:31.498Z,28.55
2019-06-08T08:54:51.333Z,27.38
2019-06-08T08:57:21.041Z,29.09
2019-06-08T08:59:51.896Z,30.20
2019-06-08T09:02:21.459Z,30.88
2019-06-08T09:04:50.819Z,31.11
2019-06-08T09:07:20.620Z,30.01
2019-06-08T09:09:51.890Z,32.03
2019-06-08T09:12:20.243Z,31.80
2019-06-08T09:14:49.339Z,29.63
2019-06-08T09:17:18.439Z,29.13
2019-06-08T09:19:48.066Z,29.89
2019-06-08T09:22:18.785Z,29.42
2019-06-08T09:24:48.548Z,31.13
2019-06-08T09:27:17.990Z,28.81
2019-06-08T09:29:48.240Z,29.61
2019-06-08T09:32:17.986Z,30.21
2019-06-08T09:34:48.295Z,30.53
2019-06-08T09:37:18.542Z,29.47
2019-06-08T09:39:48.531Z,28.14
2019-06-08T09:42:20.901Z,29.70
2019-06-08T09:44:48.442Z,28.38
2019-06-08T09:47:18.164Z,28.14
2019-06-08T09:49:48.037Z,25.76
2019-06-08T09:52:18.578Z,27.97
2019-06-08T09:54:48.203Z,28.60
2019-06-08T09:57:18.916Z,31.58
2019-06-08T09:59:48.342Z,29.33
2019-06-08T10:02:18.539Z,28.85
2019-06-08T10:04:48.391Z,30.12
2019-06-08T10:07:18.678Z,31.37
2019-06-08T10:09:50.015Z,30.88
2019-06-08T10:12:18.527Z,28.80
2019-06-08T10:14:48.972Z,28.05
2019-06-08T10:17:20.862Z,30.30
2019-06-08T10:19:48.790Z,30.90
2019-06-08T10:22:18.217Z,31.38
2019-06-08T10:24:48.999Z,28.74
2019-06-08T10:27:18.915Z,29.75
2019-06-08T10:29:48.345Z,29.25
2019-06-08T10:32:19.465Z,28.85
2019-06-08T10:34:49.476Z,30.42
2019-06-08T10:37:18.759Z,31.16
2019-06-08T10:39:47.987Z,30.06
2019-06-08T10:42:18.026Z,28.09
2019-06-08T10:44:47.112Z,29.29
2019-06-08T10:47:16.051Z,30.11
2019-06-08T10:49:45.070Z,29.32
2019-06-08T10:52:14.067Z,29.71
2019-06-08T10:54:43.217Z,28.90
2019-06-08T10:57:12.335Z,29.71
2019-06-08T10:59:41.449Z,30.33
2019-06-08T11:02:13.897Z,30.62
2019-06-08T11:04:43.157Z,31.14
2019-06-08T11:07:15.822Z,32.59
2019-06-08T11:09:42.619Z,33.11
2019-06-08T11:12:14.998Z,31.79
2019-06-08T11:14:42.352Z,34.70
2019-06-08T11:17:11.508Z,33.91
2019-06-08T11:19:40.844Z,34.83
2019-06-08T11:22:14.209Z,33.75
2019-06-08T11:24:40.470Z,33.71
2019-06-08T11:27:12.682Z,32.74
2019-06-08T11:29:40.323Z,32.06
2019-06-08T11:32:12.540Z,32.23
2019-06-08T11:34:41.738Z,32.57
2019-06-08T11:37:13.002Z,33.04
2019-06-08T11:39:41.389Z,33.56
2019-06-08T11:42:12.846Z,33.69
2019-06-08T11:44:41.267Z,32.12
2019-06-08T11:47:13.009Z,31.72
2019-06-08T11:49:40.962Z,32.46
2019-06-08T11:52:11.162Z,30.90
2019-06-08T11:54:41.212Z,30.24
2019-06-08T11:57:12.548Z,30.99
2019-06-08T11:59:41.200Z,31.56
2019-06-08T12:02:13.524Z,33.39
2019-06-08T12:04:40.831Z,33.59
2019-06-08T12:07:12.236Z,33.49
2019-06-08T12:09:40.351Z,32.34
2019-06-08T12:12:17.139Z,34.17
2019-06-08T12:14:40.686Z,34.02
2019-06-08T12:17:13.471Z,33.33
2019-06-08T12:19:40.465Z,33.17
2019-06-08T12:22:12.764Z,31.59
2019-06-08T12:24:42.655Z,31.38
2019-06-08T12:27:23.771Z,32.83
2019-06-08T12:29:42.587Z,33.03
2019-06-08T12:32:12.780Z,32.56
2019-06-08T12:34:42.221Z,32.12
2019-06-08T12:37:15.660Z,32.89
2019-06-08T12:39:41.939Z,33.14
2019-06-08T12:42:15.574Z,32.36
2019-06-08T12:44:43.725Z,32.51
2019-06-08T12:47:16.287Z,33.14
2019-06-08T12:49:43.594Z,32.69
2019-06-08T12:52:14.168Z,33.66
2019-06-08T12:54:56.589Z,32.85
2019-06-08T12:57:16.622Z,32.67
2019-06-08T12:59:45.467Z,33.34
2019-06-08T13:02:16.628Z,34.63
2019-06-08T13:04:45.275Z,34.21
2019-06-08T13:07:14.911Z,33.36
2019-06-08T13:09:43.861Z,33.75
2019-06-08T13:12:13.145Z,33.57
2019-06-08T13:14:42.404Z,33.46
2019-06-08T13:17:11.905Z,32.68
2019-06-08T13:19:42.117Z,33.29
2019-06-08T13:22:11.222Z,32.32
2019-06-08T13:24:40.263Z,33.68
2019-06-08T13:27:13.007Z,32.79
2019-06-08T13:29:40.189Z,34.24
2019-06-08T13:32:09.810Z,33.62
2019-06-08T13:34:38.906Z,33.03
2019-06-08T13:37:08.462Z,33.12
2019-06-08T13:39:38.777Z,31.89
2019-06-08T13:42:07.926Z,32.40
2019-06-08T13:44:37.797Z,32.34
2019-06-08T13:47:08.101Z,33.03
2019-06-08T13:49:37.768Z,32.37
2019-06-08T13:52:07.897Z,33.09
2019-06-08T13:54:38.191Z,33.99
2019-06-08T13:57:08.559Z,33.40
2019-06-08T13:59:38.981Z,32.76
2019-06-08T14:02:07.962Z,31.74
2019-06-08T14:04:39.396Z,30.98
2019-06-08T14:07:07.954Z,30.79
2019-06-08T14:09:38.297Z,32.36
2019-06-08T14:12:07.820Z,33.42
2019-06-08T14:14:39.635Z,32.24
2019-06-08T14:17:08.495Z,32.02
2019-06-08T14:19:38.559Z,32.40
2019-06-08T14:22:10.500Z,32.96
2019-06-08T14:24:38.380Z,32.87
2019-06-08T14:27:08.246Z,33.58
2019-06-08T14:29:37.267Z,32.98
2019-06-08T14:32:07.841Z,33.70
2019-06-08T14:34:38.673Z,34.36
2019-06-08T14:37:08.646Z,32.68
2019-06-08T14:39:37.836Z,33.25
2019-06-08T14:42:08.359Z,33.19
2019-06-08T14:44:38.059Z,32.65
2019-06-08T14:47:16.410Z,32.48
2019-06-08T14:49:48.522Z,33.31
2019-06-08T14:52:19.390Z,32.23
2019-06-08T14:54:48.672Z,31.70
2019-06-08T14:57:19.496Z,33.38
2019-06-08T14:59:50.341Z,32.29
2019-06-08T15:02:19.457Z,31.95
2019-06-08T15:04:48.611Z,32.93
2019-06-08T15:07:20.167Z,33.54
2019-06-08T15:09:48.255Z,33.67
2019-06-08T15:12:17.810Z,33.47
2019-06-08T15:14:47.726Z,33.22
2019-06-08T15:17:16.733Z,33.40
2019-06-08T15:19:47.545Z,34.23
2019-06-08T15:22:18.733Z,34.13
2019-06-08T15:24:47.923Z,34.29
2019-06-08T15:27:20.937Z,34.18
2019-06-08T15:29:47.883Z,32.86
2019-06-08T15:32:17.837Z,33.86
2019-06-08T15:34:47.687Z,32.44
2019-06-08T15:37:18.563Z,32.94
2019-06-08T15:39:48.657Z,33.30
2019-06-08T15:42:18.335Z,33.82
2019-06-08T15:44:48.002Z,34.09
2019-06-08T15:47:17.824Z,33.36
2019-06-08T15:49:50.170Z,32.33
2019-06-08T15:52:18.026Z,33.60
2019-06-08T15:54:48.433Z,32.54
2019-06-08T15:57:18.110Z,33.48
2019-06-08T15:59:49.181Z,33.09
2019-06-08T16:02:18.512Z,33.06
2019-06-08T16:04:47.514Z,31.40
2019-06-08T16:07:17.124Z,32.62
2019-06-08T16:09:46.235Z,32.24
2019-06-08T16:12:15.312Z,31.77
2019-06-08T16:14:44.558Z,33.23
2019-06-08T16:17:13.536Z,32.54
2019-06-08T16:19:42.581Z,33.05
2019-06-08T16:22:11.746Z,33.20
2019-06-08T16:24:40.683Z,33.99
2019-06-08T16:27:09.676Z,33.86
2019-06-08T16:29:39.289Z,33.56
2019-06-08T16:32:08.459Z,33.96
2019-06-08T16:34:37.472Z,34.05
2019-06-08T16:37:06.737Z,35.12
2019-06-08T16:39:35.793Z,34.71
2019-06-08T16:42:04.892Z,32.77
2019-06-08T16:44:34.265Z,33.37
2019-06-08T16:47:03.246Z,33.23
2019-06-08T16:49:33.376Z,32.93
2019-06-08T16:52:02.528Z,33.12
2019-06-08T16:54:32.809Z,35.33
2019-06-08T16:57:09.975Z,34.09
2019-06-08T16:59:32.694Z,34.64
2019-06-08T17:02:01.616Z,33.74
2019-06-08T17:04:31.161Z,33.68
2019-06-08T17:07:00.468Z,32.04
2019-06-08T17:09:29.684Z,33.83
2019-06-08T17:11:58.826Z,33.63
2019-06-08T17:14:28.123Z,33.11
2019-06-08T17:16:57.123Z,33.60
2019-06-08T17:19:26.120Z,33.76
2019-06-08T17:21:55.141Z,34.25
2019-06-08T17:24:24.103Z,33.65
2019-06-08T17:26:53.145Z,33.66
2019-06-08T17:29:23.314Z,33.04
2019-06-08T17:31:52.216Z,35.10
2019-06-08T17:34:21.384Z,35.06
2019-06-08T17:36:51.534Z,35.18
2019-06-08T17:39:20.818Z,34.44
2019-06-08T17:41:49.831Z,34.13
2019-06-08T17:44:19.028Z,34.47
2019-06-08T17:46:48.016Z,33.55
2019-06-08T17:49:17.110Z,33.65
2019-06-08T17:51:46.116Z,35.54
2019-06-08T17:54:15.086Z,35.58
2019-06-08T17:56:44.079Z,34.19
2019-06-08T17:59:13.232Z,34.24
2019-06-08T18:01:42.173Z,33.55
2019-06-08T18:04:11.385Z,33.57
2019-06-08T18:06:41.837Z,34.81
2019-06-08T18:09:11.166Z,35.56
2019-06-08T18:11:42.241Z,34.39
2019-06-08T18:14:12.265Z,33.69
2019-06-08T18:16:43.471Z,34.77
2019-06-08T18:19:28.668Z,35.20
2019-06-08T18:22:04.707Z,34.06
2019-06-08T18:24:28.729Z,35.55
2019-06-08T18:26:58.833Z,35.27
2019-06-08T18:29:27.885Z,34.38
2019-06-08T18:31:58.146Z,35.54
2019-06-08T18:34:28.482Z,35.14
2019-06-08T18:36:58.114Z,36.95
2019-06-08T18:39:28.190Z,35.75
2019-06-08T18:41:58.869Z,34.97
2019-06-08T18:44:28.807Z,35.05
2019-06-08T18:46:58.495Z,35.53
2019-06-08T18:49:28.780Z,35.55
2019-06-08T18:51:58.431Z,36.30
2019-06-08T18:54:28.057Z,36.09
2019-06-08T18:56:57.288Z,36.87
2019-06-08T18:59:28.420Z,37.16
2019-06-08T19:01:57.069Z,37.68
2019-06-08T19:04:27.673Z,36.98
2019-06-08T19:06:58.957Z,36.12
2019-06-08T19:09:29.198Z,36.47
2019-06-08T19:11:58.337Z,37.66
2019-06-08T19:14:28.701Z,37.22
2019-06-08T19:16:59.244Z,36.71
2019-06-08T19:19:31.348Z,38.26
2019-06-08T19:21:59.265Z,37.80
2019-06-08T19:24:28.560Z,37.93
2019-06-08T19:26:57.938Z,38.05
2019-06-08T19:29:27.972Z,36.60
2019-06-08T19:32:00.588Z,37.72
2019-06-08T19:34:32.764Z,37.27
2019-06-08T19:36:58.942Z,37.60
2019-06-08T19:39:28.682Z,38.31
2019-06-08T19:41:59.896Z,37.03
2019-06-08T19:44:28.846Z,38.07
2019-06-08T19:46:57.931Z,39.61
2019-06-08T19:49:28.231Z,40.64
2019-06-08T19:51:58.042Z,39.94
2019-06-08T19:54:27.289Z,41.15
2019-06-08T19:56:57.454Z,41.92
2019-06-08T19:59:27.449Z,40.78
2019-06-08T20:01:59.665Z,40.67
2019-06-08T20:04:27.646Z,40.01
2019-06-08T20:07:00.319Z,40.18
2019-06-08T20:09:28.451Z,40.37
2019-06-08T20:12:00.009Z,40.87
2019-06-08T20:14:28.259Z,41.04
2019-06-08T20:16:57.883Z,39.95
2019-06-08T20:19:27.917Z,40.77
2019-06-08T20:21:58.486Z,40.24
2019-06-08T20:24:27.968Z,41.15
2019-06-08T20:26:57.226Z,40.60
2019-06-08T20:29:28.172Z,40.18
2019-06-08T20:31:57.758Z,41.30
2019-06-08T20:34:27.331Z,42.06
2019-06-08T20:36:57.683Z,42.24
2019-06-08T20:39:27.426Z,42.36
2019-06-08T20:41:58.526Z,43.65
2019-06-08T20:44:29.985Z,43.84
2019-06-08T20:46:58.139Z,42.46
2019-06-08T20:49:27.890Z,41.53
2019-06-08T20:52:00.316Z,41.80
2019-06-08T20:54:29.823Z,42.36
2019-06-08T20:56:59.024Z,43.13
2019-06-08T20:59:33.171Z,42.92
2019-06-08T21:01:59.189Z,42.07
2019-06-08T21:04:28.573Z,41.81
2019-06-08T21:06:57.643Z,43.32
2019-06-08T21:09:27.833Z,41.88
2019-06-08T21:11:58.712Z,42.99
2019-06-08T21:14:28.124Z,42.29
2019-06-08T21:16:58.624Z,42.64
2019-06-08T21:19:28.404Z,44.07
2019-06-08T21:21:59.324Z,42.53
2019-06-08T21:24:28.461Z,43.93
2019-06-08T21:27:00.763Z,44.46
2019-06-08T21:29:44.474Z,44.53
2019-06-08T21:32:02.065Z,43.76
2019-06-08T21:34:29.604Z,43.55
2019-06-08T21:37:00.839Z,44.20
2019-06-08T21:39:29.892Z,45.74
2019-06-08T21:42:03.038Z,43.73
2019-06-08T21:44:29.552Z,44.19
2019-06-08T21:47:01.350Z,44.64
2019-06-08T21:49:29.288Z,43.48
2019-06-08T21:52:00.729Z,42.72
2019-06-08T21:54:29.063Z,42.45
2019-06-08T21:57:00.612Z,41.71
2019-06-08T21:59:28.940Z,43.25
2019-06-08T22:02:01.860Z,44.00
2019-06-08T22:04:29.012Z,43.42
2019-06-08T22:06:59.738Z,42.80
2019-06-08T22:09:28.693Z,41.79
2019-06-08T22:12:00.807Z,40.43
2019-06-08T22:14:28.556Z,43.48
2019-06-08T22:17:00.907Z,43.31
2019-06-08T22:19:28.395Z,43.47
2019-06-08T22:21:59.837Z,43.65
2019-06-08T22:24:28.210Z,42.83
2019-06-08T22:26:58.625Z,43.94
2019-06-08T22:29:28.063Z,43.87
2019-06-08T22:31:57.660Z,42.92
2019-06-08T22:34:28.074Z,43.86
2019-06-08T22:36:59.943Z,45.32
2019-06-08T22:39:28.169Z,44.45
2019-06-08T22:41:58.488Z,43.78
2019-06-08T22:44:28.486Z,44.74
2019-06-08T22:46:59.781Z,43.47
2019-06-08T22:49:28.144Z,46.24
2019-06-08T22:51:59.293Z,44.94
2019-06-08T22:54:27.721Z,42.59
2019-06-08T22:56:59.874Z,43.60
2019-06-08T22:59:27.805Z,42.25
2019-06-08T23:02:01.024Z,42.43
2019-06-08T23:04:27.834Z,41.32
2019-06-08T23:06:59.698Z,41.23
2019-06-08T23:09:28.343Z,42.30
2019-06-08T23:12:01.335Z,41.82
2019-06-08T23:14:28.658Z,43.75
2019-06-08T23:17:00.452Z,42.73
2019-06-08T23:19:28.457Z,42.45
2019-06-08T23:21:59.316Z,42.68
2019-06-08T23:24:28.041Z,42.53
2019-06-08T23:26:57.784Z,42.37
2019-06-08T23:29:27.350Z,42.71
2019-06-08T23:31:58.939Z,42.91
2019-06-08T23:34:27.663Z,43.11
2019-06-08T23:37:01.557Z,44.60
2019-06-08T23:39:28.504Z,44.09
2019-06-08T23:41:57.728Z,45.16
2019-06-08T23:44:28.322Z,44.36
2019-06-08T23:46:58.564Z,45.87
2019-06-08T23:49:28.216Z,44.35
2019-06-08T23:51:59.679Z,45.17
2019-06-08T23:54:28.156Z,45.47
2019-06-08T23:56:57.099Z,45.11
2019-06-08T23:59:27.705Z,45.53
